sensor_id;sensor_type;location;lat;lon;timestamp;pressure;altitude;pressure_sealevel;temperature;humidity
58785;BME280;44557;51.862;19.378;2023-08-31T00:01:42;98312.45;;;15.93;100.00
58785;BME280;44557;51.862;19.378;2023-08-31T00:03:44;98312.92;;;15.92;100.00
58785;BME280;44557;51.862;19.378;2023-08-31T00:06:07;98314.59;;;16.04;100.00
58785;BME280;44557;51.862;19.378;2023-08-31T00:08:10;98313.73;;;16.04;100.00
58785;BME280;44557;51.862;19.378;2023-08-31T00:10:29;98312.66;;;16.16;100.00
58785;BME280;44557;51.862;19.378;2023-08-31T00:12:31;98312.41;;;16.18;100.00
58785;BME280;44557;51.862;19.378;2023-08-31T00:14:35;98315.75;;;16.17;100.00
58785;BME280;44557;51.862;19.378;2023-08-31T00:16:43;98316.73;;;16.04;100.00
58785;BME280;44557;51.862;19.378;2023-08-31T00:18:50;98321.08;;;16.06;100.00
58785;BME280;44557;51.862;19.378;2023-08-31T00:20:58;98322.56;;;16.10;100.00
58785;BME280;44557;51.862;19.378;2023-08-31T00:23:21;98326.55;;;16.07;100.00
58785;BME280;44557;51.862;19.378;2023-08-31T00:25:25;98329.63;;;15.99;100.00
58785;BME280;44557;51.862;19.378;2023-08-31T00:27:27;98328.02;;;16.00;100.00
58785;BME280;44557;51.862;19.378;2023-08-31T00:29:34;98328.73;;;16.01;100.00
58785;BME280;44557;51.862;19.378;2023-08-31T00:31:43;98331.81;;;15.91;100.00
58785;BME280;44557;51.862;19.378;2023-08-31T00:33:49;98332.09;;;15.98;100.00
58785;BME280;44557;51.862;19.378;2023-08-31T00:36:12;98332.94;;;16.01;100.00
58785;BME280;44557;51.862;19.378;2023-08-31T00:38:17;98330.54;;;15.93;100.00
58785;BME280;44557;51.862;19.378;2023-08-31T00:40:44;98324.94;;;15.99;100.00
58785;BME280;44557;51.862;19.378;2023-08-31T00:42:47;98324.91;;;16.02;100.00
58785;BME280;44557;51.862;19.378;2023-08-31T00:44:49;98326.08;;;15.94;100.00
58785;BME280;44557;51.862;19.378;2023-08-31T00:47:12;98325.89;;;16.00;100.00
58785;BME280;44557;51.862;19.378;2023-08-31T00:49:15;98326.39;;;15.83;100.00
58785;BME280;44557;51.862;19.378;2023-08-31T00:51:20;98324.77;;;15.89;100.00
58785;BME280;44557;51.862;19.378;2023-08-31T00:53:23;98322.64;;;15.88;100.00
58785;BME280;44557;51.862;19.378;2023-08-31T00:55:27;98323.26;;;15.90;100.00
58785;BME280;44557;51.862;19.378;2023-08-31T00:57:29;98320.59;;;15.84;100.00
58785;BME280;44557;51.862;19.378;2023-08-31T00:59:36;98317.27;;;15.82;100.00
58785;BME280;44557;51.862;19.378;2023-08-31T01:01:43;98314.36;;;15.91;100.00
58785;BME280;44557;51.862;19.378;2023-08-31T01:04:25;98316.28;;;15.87;100.00
58785;BME280;44557;51.862;19.378;2023-08-31T01:06:38;98317.08;;;15.88;100.00
58785;BME280;44557;51.862;19.378;2023-08-31T01:09:35;98316.61;;;15.88;100.00
58785;BME280;44557;51.862;19.378;2023-08-31T01:12:05;98319.70;;;15.88;100.00
58785;BME280;44557;51.862;19.378;2023-08-31T01:14:18;98313.58;;;15.88;100.00
58785;BME280;44557;51.862;19.378;2023-08-31T01:16:24;98317.23;;;15.90;100.00
58785;BME280;44557;51.862;19.378;2023-08-31T01:18:47;98321.60;;;15.77;100.00
58785;BME280;44557;51.862;19.378;2023-08-31T01:21:12;98323.10;;;15.76;100.00
58785;BME280;44557;51.862;19.378;2023-08-31T01:23:30;98325.84;;;15.82;100.00
58785;BME280;44557;51.862;19.378;2023-08-31T01:25:45;98323.52;;;15.86;100.00
58785;BME280;44557;51.862;19.378;2023-08-31T01:27:51;98327.14;;;15.78;100.00
58785;BME280;44557;51.862;19.378;2023-08-31T01:30:05;98326.59;;;15.76;100.00
58785;BME280;44557;51.862;19.378;2023-08-31T01:32:10;98325.39;;;15.78;100.00
58785;BME280;44557;51.862;19.378;2023-08-31T01:34:35;98328.25;;;15.79;100.00
58785;BME280;44557;51.862;19.378;2023-08-31T01:36:42;98333.42;;;15.76;100.00
58785;BME280;44557;51.862;19.378;2023-08-31T01:38:54;98335.48;;;15.76;100.00
58785;BME280;44557;51.862;19.378;2023-08-31T01:41:23;98329.00;;;15.70;100.00
58785;BME280;44557;51.862;19.378;2023-08-31T01:43:28;98330.89;;;15.72;100.00
58785;BME280;44557;51.862;19.378;2023-08-31T01:45:34;98330.20;;;15.69;100.00
58785;BME280;44557;51.862;19.378;2023-08-31T01:47:48;98333.10;;;15.76;100.00
58785;BME280;44557;51.862;19.378;2023-08-31T01:49:51;98333.45;;;15.71;100.00
58785;BME280;44557;51.862;19.378;2023-08-31T01:51:54;98335.29;;;15.67;100.00
58785;BME280;44557;51.862;19.378;2023-08-31T01:54:16;98331.62;;;15.71;100.00
58785;BME280;44557;51.862;19.378;2023-08-31T01:56:21;98329.66;;;15.80;100.00
58785;BME280;44557;51.862;19.378;2023-08-31T01:58:54;98327.77;;;15.91;100.00
58785;BME280;44557;51.862;19.378;2023-08-31T02:00:58;98327.33;;;15.84;100.00
58785;BME280;44557;51.862;19.378;2023-08-31T02:03:10;98326.02;;;15.82;100.00
58785;BME280;44557;51.862;19.378;2023-08-31T02:05:16;98327.44;;;15.80;100.00
58785;BME280;44557;51.862;19.378;2023-08-31T02:07:21;98328.88;;;15.79;100.00
58785;BME280;44557;51.862;19.378;2023-08-31T02:09:25;98331.13;;;15.86;100.00
58785;BME280;44557;51.862;19.378;2023-08-31T02:11:33;98334.85;;;15.74;100.00
58785;BME280;44557;51.862;19.378;2023-08-31T02:13:40;98333.80;;;15.61;100.00
58785;BME280;44557;51.862;19.378;2023-08-31T02:15:43;98335.11;;;15.70;100.00
58785;BME280;44557;51.862;19.378;2023-08-31T02:17:58;98333.51;;;15.74;100.00
58785;BME280;44557;51.862;19.378;2023-08-31T02:20:03;98334.26;;;15.69;100.00
58785;BME280;44557;51.862;19.378;2023-08-31T02:22:09;98332.98;;;15.68;100.00
58785;BME280;44557;51.862;19.378;2023-08-31T02:24:32;98336.75;;;15.62;100.00
58785;BME280;44557;51.862;19.378;2023-08-31T02:26:35;98337.09;;;15.71;100.00
58785;BME280;44557;51.862;19.378;2023-08-31T02:28:59;98339.36;;;15.75;100.00
58785;BME280;44557;51.862;19.378;2023-08-31T02:31:21;98339.23;;;15.71;100.00
58785;BME280;44557;51.862;19.378;2023-08-31T02:33:24;98344.03;;;15.64;100.00
58785;BME280;44557;51.862;19.378;2023-08-31T02:38:00;98347.02;;;15.66;100.00
58785;BME280;44557;51.862;19.378;2023-08-31T02:40:01;98347.15;;;15.60;100.00
58785;BME280;44557;51.862;19.378;2023-08-31T02:42:05;98349.09;;;15.69;100.00
58785;BME280;44557;51.862;19.378;2023-08-31T02:44:07;98347.29;;;15.64;100.00
58785;BME280;44557;51.862;19.378;2023-08-31T02:46:10;98346.09;;;15.64;100.00
58785;BME280;44557;51.862;19.378;2023-08-31T02:48:14;98346.98;;;15.60;100.00
58785;BME280;44557;51.862;19.378;2023-08-31T02:50:26;98345.83;;;15.70;100.00
58785;BME280;44557;51.862;19.378;2023-08-31T02:52:40;98344.89;;;15.68;100.00
58785;BME280;44557;51.862;19.378;2023-08-31T02:57:08;98344.27;;;15.68;100.00
58785;BME280;44557;51.862;19.378;2023-08-31T02:59:11;98343.77;;;15.71;100.00
58785;BME280;44557;51.862;19.378;2023-08-31T03:01:54;98342.46;;;15.75;100.00
58785;BME280;44557;51.862;19.378;2023-08-31T03:03:56;98343.70;;;15.69;100.00
58785;BME280;44557;51.862;19.378;2023-08-31T03:06:01;98342.93;;;15.61;100.00
58785;BME280;44557;51.862;19.378;2023-08-31T03:08:07;98344.36;;;15.63;100.00
58785;BME280;44557;51.862;19.378;2023-08-31T03:10:51;98340.54;;;15.64;100.00
58785;BME280;44557;51.862;19.378;2023-08-31T03:13:02;98340.48;;;15.59;100.00
58785;BME280;44557;51.862;19.378;2023-08-31T03:15:28;98335.29;;;15.50;100.00
58785;BME280;44557;51.862;19.378;2023-08-31T03:17:49;98333.63;;;15.52;100.00
58785;BME280;44557;51.862;19.378;2023-08-31T03:20:21;98337.52;;;15.50;100.00
58785;BME280;44557;51.862;19.378;2023-08-31T03:22:28;98340.79;;;15.47;100.00
58785;BME280;44557;51.862;19.378;2023-08-31T03:24:52;98339.44;;;15.48;100.00
58785;BME280;44557;51.862;19.378;2023-08-31T03:26:57;98340.94;;;15.46;100.00
58785;BME280;44557;51.862;19.378;2023-08-31T03:29:22;98344.43;;;15.48;100.00
58785;BME280;44557;51.862;19.378;2023-08-31T03:31:51;98346.19;;;15.39;100.00
58785;BME280;44557;51.862;19.378;2023-08-31T03:33:58;98345.36;;;15.49;100.00
58785;BME280;44557;51.862;19.378;2023-08-31T03:36:25;98348.20;;;15.52;100.00
58785;BME280;44557;51.862;19.378;2023-08-31T03:38:30;98346.48;;;15.49;100.00
58785;BME280;44557;51.862;19.378;2023-08-31T03:40:35;98346.51;;;15.39;100.00
58785;BME280;44557;51.862;19.378;2023-08-31T03:42:43;98352.77;;;15.45;100.00
58785;BME280;44557;51.862;19.378;2023-08-31T03:44:53;98356.96;;;15.45;100.00
58785;BME280;44557;51.862;19.378;2023-08-31T03:47:08;98354.11;;;15.41;100.00
58785;BME280;44557;51.862;19.378;2023-08-31T03:49:31;98359.66;;;15.36;100.00
58785;BME280;44557;51.862;19.378;2023-08-31T03:51:36;98360.58;;;15.26;100.00
58785;BME280;44557;51.862;19.378;2023-08-31T03:53:59;98361.64;;;15.16;100.00
58785;BME280;44557;51.862;19.378;2023-08-31T03:56:12;98365.33;;;15.28;100.00
58785;BME280;44557;51.862;19.378;2023-08-31T03:58:26;98364.08;;;15.22;100.00
58785;BME280;44557;51.862;19.378;2023-08-31T04:00:34;98363.06;;;15.19;100.00
58785;BME280;44557;51.862;19.378;2023-08-31T04:02:41;98361.79;;;15.21;100.00
58785;BME280;44557;51.862;19.378;2023-08-31T04:05:31;98365.25;;;15.27;100.00
58785;BME280;44557;51.862;19.378;2023-08-31T04:07:30;98369.60;;;15.31;100.00
58785;BME280;44557;51.862;19.378;2023-08-31T04:09:38;98375.16;;;15.27;100.00
58785;BME280;44557;51.862;19.378;2023-08-31T04:11:55;98379.45;;;15.25;100.00
58785;BME280;44557;51.862;19.378;2023-08-31T04:14:21;98385.55;;;15.25;100.00
58785;BME280;44557;51.862;19.378;2023-08-31T04:16:43;98381.91;;;15.23;100.00
58785;BME280;44557;51.862;19.378;2023-08-31T04:19:26;98385.42;;;15.15;100.00
58785;BME280;44557;51.862;19.378;2023-08-31T04:22:01;98384.53;;;15.20;100.00
58785;BME280;44557;51.862;19.378;2023-08-31T04:24:21;98388.45;;;15.10;100.00
58785;BME280;44557;51.862;19.378;2023-08-31T04:26:37;98391.15;;;15.08;100.00
58785;BME280;44557;51.862;19.378;2023-08-31T04:28:52;98396.19;;;15.21;100.00
58785;BME280;44557;51.862;19.378;2023-08-31T04:31:25;98397.92;;;15.26;100.00
58785;BME280;44557;51.862;19.378;2023-08-31T04:33:48;98401.30;;;15.32;100.00
58785;BME280;44557;51.862;19.378;2023-08-31T04:36:31;98399.85;;;15.16;100.00
58785;BME280;44557;51.862;19.378;2023-08-31T04:38:43;98403.55;;;15.24;100.00
58785;BME280;44557;51.862;19.378;2023-08-31T04:40:58;98405.69;;;15.22;100.00
58785;BME280;44557;51.862;19.378;2023-08-31T04:43:00;98402.81;;;15.31;100.00
58785;BME280;44557;51.862;19.378;2023-08-31T04:45:05;98400.21;;;15.30;100.00
58785;BME280;44557;51.862;19.378;2023-08-31T04:47:08;98398.73;;;15.17;100.00
58785;BME280;44557;51.862;19.378;2023-08-31T04:49:16;98399.02;;;15.29;100.00
58785;BME280;44557;51.862;19.378;2023-08-31T04:51:49;98399.95;;;15.39;100.00
58785;BME280;44557;51.862;19.378;2023-08-31T04:54:15;98406.29;;;15.42;100.00
58785;BME280;44557;51.862;19.378;2023-08-31T04:56:20;98410.77;;;15.24;100.00
58785;BME280;44557;51.862;19.378;2023-08-31T04:58:24;98407.80;;;15.40;100.00
58785;BME280;44557;51.862;19.378;2023-08-31T05:00:51;98405.64;;;15.50;100.00
58785;BME280;44557;51.862;19.378;2023-08-31T05:02:58;98408.90;;;15.45;100.00
58785;BME280;44557;51.862;19.378;2023-08-31T05:05:09;98408.80;;;15.51;100.00
58785;BME280;44557;51.862;19.378;2023-08-31T05:07:24;98409.90;;;15.57;100.00
58785;BME280;44557;51.862;19.378;2023-08-31T05:09:29;98413.73;;;15.48;100.00
58785;BME280;44557;51.862;19.378;2023-08-31T05:11:37;98410.30;;;15.54;100.00
58785;BME280;44557;51.862;19.378;2023-08-31T05:13:48;98411.57;;;15.55;100.00
58785;BME280;44557;51.862;19.378;2023-08-31T05:15:56;98417.48;;;15.62;100.00
58785;BME280;44557;51.862;19.378;2023-08-31T05:18:01;98416.96;;;15.58;100.00
58785;BME280;44557;51.862;19.378;2023-08-31T05:20:33;98416.60;;;15.46;100.00
58785;BME280;44557;51.862;19.378;2023-08-31T05:22:37;98413.65;;;15.47;100.00
58785;BME280;44557;51.862;19.378;2023-08-31T05:24:42;98414.33;;;15.34;100.00
58785;BME280;44557;51.862;19.378;2023-08-31T05:26:48;98417.02;;;15.28;100.00
58785;BME280;44557;51.862;19.378;2023-08-31T05:28:54;98422.70;;;15.40;100.00
58785;BME280;44557;51.862;19.378;2023-08-31T05:31:17;98426.71;;;15.24;100.00
58785;BME280;44557;51.862;19.378;2023-08-31T05:33:19;98429.45;;;15.32;100.00
58785;BME280;44557;51.862;19.378;2023-08-31T05:35:58;98429.70;;;15.36;100.00
58785;BME280;44557;51.862;19.378;2023-08-31T05:38:02;98431.42;;;15.40;100.00
58785;BME280;44557;51.862;19.378;2023-08-31T05:40:10;98432.30;;;15.45;100.00
58785;BME280;44557;51.862;19.378;2023-08-31T05:42:32;98435.95;;;15.34;100.00
58785;BME280;44557;51.862;19.378;2023-08-31T05:44:37;98437.61;;;15.37;100.00
58785;BME280;44557;51.862;19.378;2023-08-31T05:47:03;98436.83;;;15.38;100.00
58785;BME280;44557;51.862;19.378;2023-08-31T05:49:08;98439.52;;;15.37;100.00
58785;BME280;44557;51.862;19.378;2023-08-31T05:51:16;98438.24;;;15.39;100.00
58785;BME280;44557;51.862;19.378;2023-08-31T05:53:18;98444.58;;;15.54;100.00
58785;BME280;44557;51.862;19.378;2023-08-31T05:55:20;98444.94;;;15.60;100.00
58785;BME280;44557;51.862;19.378;2023-08-31T05:57:43;98446.95;;;15.74;100.00
58785;BME280;44557;51.862;19.378;2023-08-31T05:59:47;98447.88;;;16.13;100.00
58785;BME280;44557;51.862;19.378;2023-08-31T06:01:52;98448.91;;;16.77;99.38
58785;BME280;44557;51.862;19.378;2023-08-31T06:03:56;98450.87;;;17.08;96.87
58785;BME280;44557;51.862;19.378;2023-08-31T06:06:20;98453.92;;;17.46;94.69
58785;BME280;44557;51.862;19.378;2023-08-31T06:08:44;98458.59;;;17.33;94.57
58785;BME280;44557;51.862;19.378;2023-08-31T06:10:45;98456.89;;;17.11;95.72
58785;BME280;44557;51.862;19.378;2023-08-31T06:12:47;98458.64;;;17.11;96.25
58785;BME280;44557;51.862;19.378;2023-08-31T06:14:49;98459.94;;;17.09;96.38
58785;BME280;44557;51.862;19.378;2023-08-31T06:16:52;98465.63;;;17.03;96.46
58785;BME280;44557;51.862;19.378;2023-08-31T06:18:54;98466.52;;;16.91;97.29
58785;BME280;44557;51.862;19.378;2023-08-31T06:21:07;98463.48;;;17.10;97.09
58785;BME280;44557;51.862;19.378;2023-08-31T06:23:21;98467.80;;;17.50;95.29
58785;BME280;44557;51.862;19.378;2023-08-31T06:25:23;98470.13;;;17.66;93.24
58785;BME280;44557;51.862;19.378;2023-08-31T06:27:29;98470.55;;;18.34;90.26
58785;BME280;44557;51.862;19.378;2023-08-31T06:29:31;98469.00;;;18.80;87.66
58785;BME280;44557;51.862;19.378;2023-08-31T06:31:44;98468.02;;;19.12;85.47
58785;BME280;44557;51.862;19.378;2023-08-31T06:33:46;98469.40;;;18.95;85.63
58785;BME280;44557;51.862;19.378;2023-08-31T06:35:48;98466.70;;;18.74;86.80
58785;BME280;44557;51.862;19.378;2023-08-31T06:37:53;98466.52;;;18.55;88.29
58785;BME280;44557;51.862;19.378;2023-08-31T06:39:58;98465.85;;;18.78;87.18
58785;BME280;44557;51.862;19.378;2023-08-31T06:42:01;98463.10;;;18.70;86.85
58785;BME280;44557;51.862;19.378;2023-08-31T06:44:07;98470.27;;;18.66;87.07
58785;BME280;44557;51.862;19.378;2023-08-31T06:46:09;98467.60;;;18.16;89.41
58785;BME280;44557;51.862;19.378;2023-08-31T06:48:11;98466.19;;;18.14;90.03
58785;BME280;44557;51.862;19.378;2023-08-31T06:50:14;98462.21;;;18.25;89.56
58785;BME280;44557;51.862;19.378;2023-08-31T06:52:16;98460.59;;;18.35;88.92
58785;BME280;44557;51.862;19.378;2023-08-31T06:54:30;98457.49;;;18.38;88.79
58785;BME280;44557;51.862;19.378;2023-08-31T06:56:36;98457.94;;;18.47;87.99
58785;BME280;44557;51.862;19.378;2023-08-31T06:58:39;98457.41;;;18.32;88.80
58785;BME280;44557;51.862;19.378;2023-08-31T07:00:46;98459.11;;;18.48;88.77
58785;BME280;44557;51.862;19.378;2023-08-31T07:02:49;98455.95;;;18.88;86.91
58785;BME280;44557;51.862;19.378;2023-08-31T07:04:55;98455.08;;;19.03;86.24
58785;BME280;44557;51.862;19.378;2023-08-31T07:07:17;98451.73;;;19.35;85.07
58785;BME280;44557;51.862;19.378;2023-08-31T07:09:19;98446.59;;;19.50;83.90
58785;BME280;44557;51.862;19.378;2023-08-31T07:11:31;98448.95;;;20.27;79.98
58785;BME280;44557;51.862;19.378;2023-08-31T07:13:34;98448.73;;;21.00;77.93
58785;BME280;44557;51.862;19.378;2023-08-31T07:15:39;98448.05;;;21.06;75.97
58785;BME280;44557;51.862;19.378;2023-08-31T07:17:44;98450.50;;;20.10;77.38
58785;BME280;44557;51.862;19.378;2023-08-31T07:19:46;98451.33;;;20.19;76.11
58785;BME280;44557;51.862;19.378;2023-08-31T07:21:49;98451.81;;;20.86;73.52
58785;BME280;44557;51.862;19.378;2023-08-31T07:23:53;98457.28;;;20.81;73.60
58785;BME280;44557;51.862;19.378;2023-08-31T07:25:57;98457.73;;;21.22;72.47
58785;BME280;44557;51.862;19.378;2023-08-31T07:28:02;98462.77;;;20.69;72.72
58785;BME280;44557;51.862;19.378;2023-08-31T07:30:05;98457.95;;;21.16;71.87
58785;BME280;44557;51.862;19.378;2023-08-31T07:32:07;98461.63;;;21.91;69.69
58785;BME280;44557;51.862;19.378;2023-08-31T07:34:10;98462.09;;;22.03;68.41
58785;BME280;44557;51.862;19.378;2023-08-31T07:36:22;98463.18;;;22.50;67.62
58785;BME280;44557;51.862;19.378;2023-08-31T07:38:25;98467.86;;;22.15;68.38
58785;BME280;44557;51.862;19.378;2023-08-31T07:40:28;98470.33;;;22.15;67.90
58785;BME280;44557;51.862;19.378;2023-08-31T07:42:29;98476.04;;;20.99;70.22
58785;BME280;44557;51.862;19.378;2023-08-31T07:44:31;98481.73;;;20.52;71.87
58785;BME280;44557;51.862;19.378;2023-08-31T07:46:33;98483.70;;;20.38;72.90
58785;BME280;44557;51.862;19.378;2023-08-31T07:48:46;98484.38;;;20.95;71.65
58785;BME280;44557;51.862;19.378;2023-08-31T07:50:50;98486.15;;;21.41;69.97
58785;BME280;44557;51.862;19.378;2023-08-31T07:52:56;98484.98;;;21.96;68.27
58785;BME280;44557;51.862;19.378;2023-08-31T07:54:58;98487.83;;;22.31;66.68
58785;BME280;44557;51.862;19.378;2023-08-31T07:57:03;98481.48;;;22.12;66.12
58785;BME280;44557;51.862;19.378;2023-08-31T07:59:05;98483.62;;;22.21;65.47
58785;BME280;44557;51.862;19.378;2023-08-31T08:01:07;98484.01;;;21.64;65.37
58785;BME280;44557;51.862;19.378;2023-08-31T08:03:09;98486.36;;;21.71;65.81
58785;BME280;44557;51.862;19.378;2023-08-31T08:05:13;98489.77;;;22.36;64.45
58785;BME280;44557;51.862;19.378;2023-08-31T08:07:29;98492.29;;;22.37;63.18
58785;BME280;44557;51.862;19.378;2023-08-31T08:09:31;98494.40;;;22.79;62.16
58785;BME280;44557;51.862;19.378;2023-08-31T08:11:35;98497.95;;;22.83;60.57
58785;BME280;44557;51.862;19.378;2023-08-31T08:13:38;98498.95;;;22.90;60.89
58785;BME280;44557;51.862;19.378;2023-08-31T08:15:40;98498.26;;;22.94;61.07
58785;BME280;44557;51.862;19.378;2023-08-31T08:17:43;98500.73;;;23.04;60.71
58785;BME280;44557;51.862;19.378;2023-08-31T08:19:46;98503.27;;;22.87;59.97
58785;BME280;44557;51.862;19.378;2023-08-31T08:21:48;98503.24;;;22.08;61.30
58785;BME280;44557;51.862;19.378;2023-08-31T08:23:50;98512.77;;;21.87;61.94
58785;BME280;44557;51.862;19.378;2023-08-31T08:25:54;98511.57;;;21.94;61.85
58785;BME280;44557;51.862;19.378;2023-08-31T08:27:56;98508.17;;;22.26;61.54
58785;BME280;44557;51.862;19.378;2023-08-31T08:29:58;98514.98;;;22.09;61.77
58785;BME280;44557;51.862;19.378;2023-08-31T08:32:00;98511.48;;;22.08;61.48
58785;BME280;44557;51.862;19.378;2023-08-31T08:34:02;98518.33;;;21.96;62.47
58785;BME280;44557;51.862;19.378;2023-08-31T08:36:06;98515.53;;;21.95;61.75
58785;BME280;44557;51.862;19.378;2023-08-31T08:38:08;98519.27;;;21.51;63.05
58785;BME280;44557;51.862;19.378;2023-08-31T08:40:11;98518.75;;;21.34;62.69
58785;BME280;44557;51.862;19.378;2023-08-31T08:42:12;98519.54;;;21.69;62.16
58785;BME280;44557;51.862;19.378;2023-08-31T08:44:16;98519.25;;;21.77;62.57
58785;BME280;44557;51.862;19.378;2023-08-31T08:46:21;98520.42;;;21.54;62.62
58785;BME280;44557;51.862;19.378;2023-08-31T08:48:23;98518.30;;;21.32;63.39
58785;BME280;44557;51.862;19.378;2023-08-31T08:50:26;98514.95;;;22.10;61.54
58785;BME280;44557;51.862;19.378;2023-08-31T08:52:30;98512.48;;;22.07;61.61
58785;BME280;44557;51.862;19.378;2023-08-31T08:54:34;98513.85;;;22.10;62.73
58785;BME280;44557;51.862;19.378;2023-08-31T08:56:36;98511.36;;;22.32;61.74
58785;BME280;44557;51.862;19.378;2023-08-31T08:58:39;98512.54;;;22.44;61.52
58785;BME280;44557;51.862;19.378;2023-08-31T09:00:42;98511.41;;;22.73;59.89
58785;BME280;44557;51.862;19.378;2023-08-31T09:02:45;98513.42;;;22.93;59.56
58785;BME280;44557;51.862;19.378;2023-08-31T09:04:47;98514.73;;;23.05;59.03
58785;BME280;44557;51.862;19.378;2023-08-31T09:06:52;98512.15;;;23.57;56.94
58785;BME280;44557;51.862;19.378;2023-08-31T09:08:54;98516.98;;;23.45;55.75
58785;BME280;44557;51.862;19.378;2023-08-31T09:10:58;98510.89;;;23.54;56.21
58785;BME280;44557;51.862;19.378;2023-08-31T09:13:00;98511.01;;;23.48;55.45
58785;BME280;44557;51.862;19.378;2023-08-31T09:15:04;98515.70;;;22.97;56.79
58785;BME280;44557;51.862;19.378;2023-08-31T09:17:07;98514.85;;;22.60;58.77
58785;BME280;44557;51.862;19.378;2023-08-31T09:19:23;98515.38;;;22.56;59.33
58785;BME280;44557;51.862;19.378;2023-08-31T09:21:35;98519.55;;;22.83;59.05
58785;BME280;44557;51.862;19.378;2023-08-31T09:23:38;98520.11;;;22.54;59.48
58785;BME280;44557;51.862;19.378;2023-08-31T09:25:47;98524.53;;;22.40;59.88
58785;BME280;44557;51.862;19.378;2023-08-31T09:27:56;98528.92;;;22.12;61.55
58785;BME280;44557;51.862;19.378;2023-08-31T09:29:58;98531.30;;;22.31;62.08
58785;BME280;44557;51.862;19.378;2023-08-31T09:32:01;98528.42;;;22.81;60.98
58785;BME280;44557;51.862;19.378;2023-08-31T09:34:04;98524.98;;;22.65;58.66
58785;BME280;44557;51.862;19.378;2023-08-31T09:36:07;98527.70;;;22.62;58.38
58785;BME280;44557;51.862;19.378;2023-08-31T09:38:09;98537.65;;;22.51;59.01
58785;BME280;44557;51.862;19.378;2023-08-31T09:40:14;98543.86;;;22.34;59.13
58785;BME280;44557;51.862;19.378;2023-08-31T09:42:16;98542.10;;;21.97;59.48
58785;BME280;44557;51.862;19.378;2023-08-31T09:44:19;98542.14;;;22.24;59.92
58785;BME280;44557;51.862;19.378;2023-08-31T09:46:21;98536.44;;;22.79;57.66
58785;BME280;44557;51.862;19.378;2023-08-31T09:48:24;98537.25;;;23.01;58.36
58785;BME280;44557;51.862;19.378;2023-08-31T09:50:32;98538.85;;;23.42;57.91
58785;BME280;44557;51.862;19.378;2023-08-31T09:52:35;98538.96;;;23.67;57.49
58785;BME280;44557;51.862;19.378;2023-08-31T09:54:39;98542.21;;;23.50;56.62
58785;BME280;44557;51.862;19.378;2023-08-31T09:56:45;98542.04;;;23.35;57.45
58785;BME280;44557;51.862;19.378;2023-08-31T09:58:47;98544.88;;;22.88;58.23
58785;BME280;44557;51.862;19.378;2023-08-31T10:00:51;98549.02;;;22.44;60.13
58785;BME280;44557;51.862;19.378;2023-08-31T10:02:57;98548.98;;;22.15;61.11
58785;BME280;44557;51.862;19.378;2023-08-31T10:05:00;98550.94;;;21.93;61.63
58785;BME280;44557;51.862;19.378;2023-08-31T10:07:04;98550.42;;;22.17;62.04
58785;BME280;44557;51.862;19.378;2023-08-31T10:09:08;98551.93;;;22.58;60.38
58785;BME280;44557;51.862;19.378;2023-08-31T10:11:14;98547.97;;;22.36;60.41
58785;BME280;44557;51.862;19.378;2023-08-31T10:13:19;98547.03;;;22.46;61.44
58785;BME280;44557;51.862;19.378;2023-08-31T10:15:22;98548.31;;;22.47;60.65
58785;BME280;44557;51.862;19.378;2023-08-31T10:17:25;98548.44;;;22.66;58.96
58785;BME280;44557;51.862;19.378;2023-08-31T10:19:26;98544.30;;;23.17;57.49
58785;BME280;44557;51.862;19.378;2023-08-31T10:21:29;98547.23;;;23.48;57.24
58785;BME280;44557;51.862;19.378;2023-08-31T10:23:32;98542.84;;;23.83;55.73
58785;BME280;44557;51.862;19.378;2023-08-31T10:26:06;98544.29;;;23.71;56.72
58785;BME280;44557;51.862;19.378;2023-08-31T10:28:17;98543.00;;;23.53;57.17
58785;BME280;44557;51.862;19.378;2023-08-31T10:32:24;98543.13;;;23.01;58.62
58785;BME280;44557;51.862;19.378;2023-08-31T10:34:36;98542.46;;;22.66;60.57
58785;BME280;44557;51.862;19.378;2023-08-31T10:36:45;98543.17;;;22.55;60.28
58785;BME280;44557;51.862;19.378;2023-08-31T10:43:16;98534.58;;;23.05;58.17
58785;BME280;44557;51.862;19.378;2023-08-31T10:45:23;98533.64;;;23.29;58.28
58785;BME280;44557;51.862;19.378;2023-08-31T10:47:37;98531.76;;;23.69;57.39
58785;BME280;44557;51.862;19.378;2023-08-31T10:49:50;98531.38;;;23.47;56.28
58785;BME280;44557;51.862;19.378;2023-08-31T10:51:55;98531.40;;;23.39;56.64
58785;BME280;44557;51.862;19.378;2023-08-31T10:56:10;98534.27;;;23.40;56.43
58785;BME280;44557;51.862;19.378;2023-08-31T10:58:13;98538.21;;;23.22;57.31
58785;BME280;44557;51.862;19.378;2023-08-31T11:00:50;98537.84;;;22.67;59.23
58785;BME280;44557;51.862;19.378;2023-08-31T11:02:52;98543.34;;;22.16;60.72
58785;BME280;44557;51.862;19.378;2023-08-31T11:05:26;98547.09;;;21.85;62.45
58785;BME280;44557;51.862;19.378;2023-08-31T11:07:29;98553.54;;;21.70;64.17
58785;BME280;44557;51.862;19.378;2023-08-31T11:09:31;98554.29;;;21.65;64.70
58785;BME280;44557;51.862;19.378;2023-08-31T11:11:38;98557.27;;;21.27;65.29
58785;BME280;44557;51.862;19.378;2023-08-31T11:13:40;98557.10;;;21.15;66.88
58785;BME280;44557;51.862;19.378;2023-08-31T11:15:45;98553.91;;;20.92;67.46
58785;BME280;44557;51.862;19.378;2023-08-31T11:17:50;98552.25;;;20.70;67.89
58785;BME280;44557;51.862;19.378;2023-08-31T11:19:53;98551.94;;;20.63;68.26
58785;BME280;44557;51.862;19.378;2023-08-31T11:21:56;98552.50;;;20.43;68.47
58785;BME280;44557;51.862;19.378;2023-08-31T11:23:58;98552.04;;;20.58;68.76
58785;BME280;44557;51.862;19.378;2023-08-31T11:26:00;98556.16;;;20.67;69.00